Time;durP1;ratioP1;P1;durP2;ratioP2;P2;SDS_P1;SDS_P2;PMS_P1;PMS_P2;Temp;Humidity;BMP_temperature;BMP_pressure;BME280_temperature;BME280_humidity;BME280_pressure;Samples;Min_cycle;Max_cycle;Signal;HPM_P1;HPM_P2
2023/02/12 00:00:50;;;;;;;50.67;25.03;;;;;;;0.03;54.01;101184.53;125358;1099;107151;-85
2023/02/12 00:03:42;;;;;;;51.17;25.30;;;;;;;0.06;54.18;101174.48;125443;1099;104240;-85
2023/02/12 00:06:14;;;;;;;54.37;25.80;;;;;;;0.08;54.56;101170.39;125564;1099;102381;-84
2023/02/12 00:08:49;;;;;;;47.63;24.73;;;;;;;0.12;54.16;101166.39;125442;1098;101846;-86
2023/02/12 00:11:22;;;;;;;54.40;24.07;;;;;;;0.16;54.56;101165.91;125516;1099;104173;-87
2023/02/12 00:13:54;;;;;;;56.73;26.25;;;;;;;0.21;54.35;101169.78;125484;1099;102004;-86
2023/02/12 00:16:27;;;;;;;53.60;25.47;;;;;;;0.24;54.91;101159.73;125584;1099;104172;-86
2023/02/12 00:18:59;;;;;;;53.15;25.52;;;;;;;0.29;54.91;101154.97;125378;1099;102243;-87
2023/02/12 00:21:31;;;;;;;54.00;26.87;;;;;;;0.31;54.70;101155.99;125494;1098;102307;-87
2023/02/12 00:24:02;;;;;;;50.90;24.73;;;;;;;0.33;55.09;101160.53;125634;1099;104258;-84
2023/02/12 00:26:33;;;;;;;46.83;23.57;;;;;;;0.34;55.20;101156.26;125602;1099;101897;-85
2023/02/12 00:29:05;;;;;;;47.90;23.10;;;;;;;0.28;55.14;101145.40;125523;1098;102263;-85
2023/02/12 00:31:36;;;;;;;51.17;23.80;;;;;;;0.34;54.90;101143.35;125510;1099;104281;-84
2023/02/12 00:34:07;;;;;;;50.90;24.30;;;;;;;0.34;55.86;101141.70;125003;1099;102131;-84
2023/02/12 00:36:38;;;;;;;46.13;22.87;;;;;;;0.35;55.26;101138.32;125536;1099;104169;-84
2023/02/12 00:39:12;;;;;;;48.85;22.60;;;;;;;0.37;55.05;101129.81;124901;1098;104293;-83
2023/02/12 00:41:43;;;;;;;46.90;23.00;;;;;;;0.40;55.12;101140.41;125518;1099;101960;-86
2023/02/12 00:44:15;;;;;;;49.60;24.30;;;;;;;0.42;55.62;101133.69;125522;1098;101910;-85
2023/02/12 00:46:46;;;;;;;44.30;22.37;;;;;;;0.42;55.15;101128.52;125638;1098;101877;-83
2023/02/12 00:49:19;;;;;;;44.17;22.27;;;;;;;0.42;55.81;101125.94;125666;1099;104220;-86
2023/02/12 00:51:50;;;;;;;46.30;23.07;;;;;;;0.42;55.62;101126.88;125504;1099;108258;-85
2023/02/12 00:54:21;;;;;;;45.93;22.40;;;;;;;0.43;55.75;101125.18;125433;1099;104262;-83
2023/02/12 00:56:54;;;;;;;42.43;20.37;;;;;;;0.43;55.45;101120.91;125637;1096;104173;-85
2023/02/12 00:59:26;;;;;;;45.07;22.27;;;;;;;0.45;56.01;101116.81;125002;1099;102096;-86
2023/02/12 01:01:57;;;;;;;47.93;23.20;;;;;;;0.48;55.97;101118.72;125489;1099;101900;-85
2023/02/12 01:04:28;;;;;;;43.87;22.00;;;;;;;0.49;56.67;101115.37;125482;1099;104261;-86
2023/02/12 01:07:00;;;;;;;44.33;20.93;;;;;;;0.49;56.24;101110.22;124949;1099;104185;-85
2023/02/12 01:09:31;;;;;;;44.07;20.83;;;;;;;0.51;56.74;101103.49;125478;1099;103076;-84
2023/02/12 01:12:02;;;;;;;42.33;21.70;;;;;;;0.53;56.54;101102.86;125074;1099;104192;-85
2023/02/12 01:14:34;;;;;;;42.57;20.57;;;;;;;0.56;56.20;101107.36;125493;1098;102270;-84
2023/02/12 01:17:07;;;;;;;41.60;19.73;;;;;;;0.59;56.85;101107.63;124982;1099;104082;-85
2023/02/12 01:19:38;;;;;;;41.85;20.25;;;;;;;0.63;56.55;101096.79;125555;1099;104165;-84
2023/02/12 01:22:10;;;;;;;39.80;20.27;;;;;;;0.68;56.27;101094.59;125393;1099;104262;-86
2023/02/12 01:24:41;;;;;;;42.67;20.87;;;;;;;0.72;56.58;101094.09;125530;1097;104274;-86
2023/02/12 01:27:12;;;;;;;40.83;20.60;;;;;;;0.76;56.41;101090.97;125557;1099;101977;-86
2023/02/12 01:29:44;;;;;;;41.07;19.67;;;;;;;0.81;57.28;101099.11;125434;1099;102644;-86
2023/02/12 01:32:15;;;;;;;40.63;19.80;;;;;;;0.85;56.54;101106.36;125570;1099;104168;-85
2023/02/12 01:34:47;;;;;;;39.43;20.17;;;;;;;0.88;56.84;101104.03;125663;1099;102367;-85
2023/02/12 01:37:18;;;;;;;40.90;19.63;;;;;;;0.91;57.53;101099.13;125611;1099;104235;-87
2023/02/12 01:39:49;;;;;;;40.53;18.90;;;;;;;0.96;57.05;101096.92;125516;1098;104207;-84
2023/02/12 01:42:21;;;;;;;40.57;19.47;;;;;;;1.00;57.62;101094.72;125483;1099;105522;-84
2023/02/12 01:45:28;;;;;;;41.03;19.73;;;;;;;1.06;57.73;101087.48;125438;1099;104117;-86
2023/02/12 01:48:02;;;;;;;41.85;19.80;;;;;;;1.15;57.83;101089.91;125331;1099;104221;-86
2023/02/12 01:50:33;;;;;;;40.52;19.25;;;;;;;1.19;57.52;101091.08;125587;1099;104281;-85
2023/02/12 01:53:05;;;;;;;41.37;19.83;;;;;;;1.21;58.00;101092.99;125346;1099;119251;-85
2023/02/12 01:55:36;;;;;;;37.77;19.13;;;;;;;1.23;58.41;101103.46;125026;1099;102195;-87
2023/02/12 01:58:09;;;;;;;39.03;19.87;;;;;;;1.24;57.47;101106.17;124946;1099;102198;-85
2023/02/12 02:00:41;;;;;;;37.67;19.07;;;;;;;1.24;57.78;101103.59;125608;1099;101858;-85
2023/02/12 02:03:13;;;;;;;43.03;21.53;;;;;;;1.27;56.93;101107.23;125537;1099;104175;-87
2023/02/12 02:05:54;;;;;;;42.57;20.43;;;;;;;1.26;57.89;101101.13;125467;1099;104395;-87
2023/02/12 02:08:25;;;;;;;38.50;19.80;;;;;;;1.28;58.12;101101.26;124945;1099;102268;-86
2023/02/12 02:10:57;;;;;;;38.57;17.90;;;;;;;1.33;58.14;101103.45;125541;1099;104179;-84
2023/02/12 02:16:24;;;;;;;37.53;18.47;;;;;;;1.41;57.96;101102.39;125536;1098;104188;-84
2023/02/12 02:19:02;;;;;;;39.67;18.90;;;;;;;1.46;58.63;101105.36;125504;1098;101973;-86
2023/02/12 02:21:57;;;;;;;39.37;19.77;;;;;;;1.49;58.42;101104.71;125449;1099;104241;-83
2023/02/12 02:25:01;;;;;;;41.17;20.03;;;;;;;1.51;58.30;101110.91;125468;1099;101855;-85
2023/02/12 02:27:47;;;;;;;41.37;20.17;;;;;;;1.49;58.94;101103.02;125510;1099;104210;-84
2023/02/12 02:30:31;;;;;;;38.20;18.77;;;;;;;1.52;58.63;101115.31;125623;1099;104172;-84
2023/02/12 02:33:14;;;;;;;40.80;19.65;;;;;;;1.52;59.38;101118.79;125526;1098;102239;-84
2023/02/12 02:35:52;;;;;;;41.30;19.13;;;;;;;1.52;59.07;101115.31;125523;1099;104182;-84
2023/02/12 02:38:32;;;;;;;44.80;20.83;;;;;;;1.52;59.89;101123.07;125585;1099;104175;-84
2023/02/12 02:41:13;;;;;;;45.03;20.87;;;;;;;1.52;59.52;101120.48;125656;1099;104172;-86
2023/02/12 02:43:48;;;;;;;39.87;19.30;;;;;;;1.51;60.29;101126.42;125587;1099;104201;-85
2023/02/12 02:46:26;;;;;;;38.97;19.17;;;;;;;1.52;59.99;101134.31;125519;1099;104173;-83
2023/02/12 02:49:02;;;;;;;40.90;20.30;;;;;;;1.54;60.20;101127.60;125534;1099;102164;-85
2023/02/12 02:51:37;;;;;;;43.80;20.37;;;;;;;1.55;59.92;101133.67;125490;1099;102031;-84
2023/02/12 02:54:13;;;;;;;37.83;19.00;;;;;;;1.54;60.19;101142.20;125382;1098;102613;-83
2023/02/12 02:56:48;;;;;;;36.03;18.03;;;;;;;1.55;60.71;101131.97;125553;1099;101829;-84
2023/02/12 02:59:28;;;;;;;43.47;21.07;;;;;;;1.59;60.55;101139.22;125532;1099;102045;-86
2023/02/12 03:02:06;;;;;;;40.63;19.70;;;;;;;1.58;61.81;101142.58;124895;1099;102125;-83
2023/02/12 03:04:43;;;;;;;40.47;19.20;;;;;;;1.60;61.62;101145.28;125515;1099;104255;-81
2023/02/12 03:07:21;;;;;;;40.40;19.07;;;;;;;1.58;61.35;101147.75;125542;1099;104188;-84
2023/02/12 03:09:58;;;;;;;41.07;19.67;;;;;;;1.57;60.84;101145.03;125538;1098;104278;-83
2023/02/12 03:12:36;;;;;;;39.47;18.47;;;;;;;1.58;62.69;101144.27;125611;1099;102173;-84
2023/02/12 03:15:11;;;;;;;42.93;19.87;;;;;;;1.61;62.85;101141.93;125544;1099;107041;-86
2023/02/12 03:17:46;;;;;;;38.23;19.20;;;;;;;1.61;62.94;101142.83;125497;1099;104201;-84
2023/02/12 03:20:23;;;;;;;37.23;18.43;;;;;;;1.62;63.83;101135.95;125560;1099;102844;-86
2023/02/12 03:22:58;;;;;;;37.87;18.37;;;;;;;1.64;64.13;101142.18;125412;1099;104181;-86
2023/02/12 03:25:35;;;;;;;39.00;18.33;;;;;;;1.67;65.81;101141.50;125531;1099;117905;-85
2023/02/12 03:28:13;;;;;;;37.60;18.30;;;;;;;1.70;65.33;101141.75;125520;1099;102151;-86
2023/02/12 03:30:51;;;;;;;38.93;17.93;;;;;;;1.70;66.12;101145.27;125083;1099;101845;-85
2023/02/12 03:33:30;;;;;;;37.13;17.73;;;;;;;1.72;66.52;101137.63;125600;1098;102413;-85
2023/02/12 03:36:13;;;;;;;38.33;18.57;;;;;;;1.73;67.29;101147.18;124967;1099;104342;-84
2023/02/12 03:38:49;;;;;;;38.90;17.37;;;;;;;1.72;67.10;101135.94;125653;1099;104705;-86
2023/02/12 03:41:27;;;;;;;35.23;16.33;;;;;;;1.73;67.12;101142.00;125503;1098;102058;-84
2023/02/12 03:44:07;;;;;;;37.57;17.97;;;;;;;1.77;68.46;101144.97;125352;1099;104204;-81
2023/02/12 03:46:47;;;;;;;38.53;17.43;;;;;;;1.78;69.60;101153.66;125564;1099;104211;-81
2023/02/12 03:49:23;;;;;;;35.87;16.33;;;;;;;1.80;68.67;101142.63;125635;1099;102358;-87
2023/02/12 03:51:55;;;;;;;33.07;16.20;;;;;;;1.80;68.79;101140.04;125582;1099;102099;-84
2023/02/12 03:54:27;;;;;;;35.20;17.00;;;;;;;1.81;69.69;101153.91;125488;1099;104208;-87
2023/02/12 03:57:03;;;;;;;33.27;16.07;;;;;;;1.82;69.39;101157.39;125530;1099;102121;-85
2023/02/12 03:59:38;;;;;;;33.93;16.57;;;;;;;1.86;70.42;101149.10;125597;1099;102201;-88
2023/02/12 04:02:10;;;;;;;32.40;15.33;;;;;;;1.85;69.65;101157.64;125533;1099;102003;-83
2023/02/12 04:04:41;;;;;;;33.80;15.47;;;;;;;1.86;70.26;101168.11;125526;1099;104166;-82
2023/02/12 04:07:14;;;;;;;35.47;17.17;;;;;;;1.89;70.49;101154.53;125605;1099;101847;-84
2023/02/12 04:09:45;;;;;;;31.60;16.00;;;;;;;1.90;70.58;101151.14;125548;1099;101794;-84
2023/02/12 04:12:39;;;;;;;33.27;16.30;;;;;;;1.90;70.79;101156.31;125565;1099;104211;-86
2023/02/12 04:15:28;;;;;;;33.50;15.87;;;;;;;1.92;72.16;101153.08;125673;1097;102090;-85
2023/02/12 04:18:07;;;;;;;35.03;16.97;;;;;;;1.95;71.73;101163.68;125608;1099;102669;-86
2023/02/12 04:20:48;;;;;;;33.33;16.40;;;;;;;1.94;71.37;101163.56;125530;1099;104304;-83
2023/02/12 04:23:38;;;;;;;33.17;15.73;;;;;;;1.93;71.76;101165.25;125602;1099;104200;-85
2023/02/12 04:26:18;;;;;;;33.30;15.33;;;;;;;1.95;71.45;101180.91;125367;1099;104245;-85
2023/02/12 04:28:57;;;;;;;37.27;16.57;;;;;;;1.96;71.01;101172.34;125538;1099;101881;-86
2023/02/12 04:31:34;;;;;;;34.33;16.73;;;;;;;1.97;70.14;101168.98;125561;1099;104351;-85
2023/02/12 04:34:15;;;;;;;33.73;16.50;;;;;;;1.99;69.33;101172.59;125501;1097;104287;-87
2023/02/12 04:36:54;;;;;;;34.83;17.43;;;;;;;2.02;71.50;101180.60;125534;1098;104179;-84
2023/02/12 04:39:31;;;;;;;34.57;16.67;;;;;;;2.03;70.44;101179.84;125534;1099;104211;-85
2023/02/12 04:42:03;;;;;;;31.20;15.57;;;;;;;2.04;70.26;101178.14;125549;1099;104192;-86
2023/02/12 04:44:38;;;;;;;33.13;16.73;;;;;;;2.07;70.42;101180.97;125577;1099;104203;-82
2023/02/12 04:47:10;;;;;;;32.30;15.60;;;;;;;2.07;70.80;101180.97;125172;1099;104274;-85
2023/02/12 04:49:42;;;;;;;32.50;16.13;;;;;;;2.08;71.50;101191.45;125535;1099;104248;-85
2023/02/12 04:52:13;;;;;;;35.25;17.05;;;;;;;2.09;71.88;101187.20;125457;1099;104146;-84
2023/02/12 04:54:44;;;;;;;34.13;17.23;;;;;;;2.11;71.50;101199.47;125625;1099;104179;-85
2023/02/12 04:57:16;;;;;;;32.10;16.27;;;;;;;2.13;71.97;101199.59;125566;1099;118802;-85
2023/02/12 04:59:47;;;;;;;32.83;16.83;;;;;;;2.15;71.95;101196.36;125559;1099;102147;-85
2023/02/12 05:02:18;;;;;;;33.40;16.70;;;;;;;2.13;72.67;101187.54;125592;1099;104172;-87
2023/02/12 05:04:50;;;;;;;33.37;16.10;;;;;;;2.18;73.13;101194.78;125584;1099;104185;-87
2023/02/12 05:07:22;;;;;;;31.33;16.37;;;;;;;2.18;72.71;101197.38;125577;1099;104245;-85
2023/02/12 05:09:54;;;;;;;34.50;16.80;;;;;;;2.19;72.59;101206.97;125603;1099;104192;-84
2023/02/12 05:12:25;;;;;;;29.50;14.13;;;;;;;2.19;72.94;101210.45;125497;1099;104220;-83
2023/02/12 05:14:57;;;;;;;33.80;16.97;;;;;;;2.20;72.85;101219.11;125520;1099;102232;-86
2023/02/12 05:17:28;;;;;;;33.67;16.43;;;;;;;2.18;72.23;101226.75;125520;1099;101961;-86
2023/02/12 05:20:00;;;;;;;29.27;15.47;;;;;;;2.19;72.87;101230.27;125500;1097;104210;-87
2023/02/12 05:22:31;;;;;;;34.53;16.80;;;;;;;2.19;73.49;101233.75;125588;1099;102170;-87
2023/02/12 05:25:03;;;;;;;33.40;15.60;;;;;;;2.17;72.38;101232.73;125637;1098;104274;-86
2023/02/12 05:27:34;;;;;;;38.13;17.90;;;;;;;2.21;73.91;101241.64;125601;1099;104341;-86
2023/02/12 05:30:08;;;;;;;34.17;16.50;;;;;;;2.21;73.70;101252.89;125564;1099;102534;-86
2023/02/12 05:32:39;;;;;;;32.90;15.27;;;;;;;2.22;75.50;101253.82;125653;1099;102090;-84
2023/02/12 05:35:11;;;;;;;33.73;16.40;;;;;;;2.24;74.51;101254.84;125553;1099;104274;-84
2023/02/12 05:37:42;;;;;;;32.15;15.15;;;;;;;2.24;73.93;101249.66;125601;1099;104316;-85
2023/02/12 05:40:15;;;;;;;35.70;17.27;;;;;;;2.27;74.42;101252.50;125587;1099;102350;-87
2023/02/12 05:42:46;;;;;;;33.43;16.47;;;;;;;2.29;73.39;101263.87;125545;1099;102358;-87
2023/02/12 05:45:17;;;;;;;30.07;14.47;;;;;;;2.32;74.50;101253.77;125576;1098;104165;-84
2023/02/12 05:47:48;;;;;;;33.47;16.53;;;;;;;2.34;74.09;101252.23;125568;1099;104229;-87
2023/02/12 05:50:20;;;;;;;33.73;16.73;;;;;;;2.37;73.82;101268.02;125533;1099;102409;-86
2023/02/12 05:52:52;;;;;;;31.90;15.80;;;;;;;2.39;74.97;101278.50;125575;1099;101977;-85
2023/02/12 05:55:23;;;;;;;32.60;16.70;;;;;;;2.42;75.54;101273.56;125579;1099;104367;-86
2023/02/12 05:57:54;;;;;;;32.10;16.50;;;;;;;2.45;75.03;101281.59;125501;1099;102243;-86
2023/02/12 06:00:26;;;;;;;32.75;16.05;;;;;;;2.48;74.99;101292.20;125547;1099;102026;-84
2023/02/12 06:02:57;;;;;;;34.43;17.20;;;;;;;2.50;75.41;101294.11;125591;1099;104176;-85
2023/02/12 06:05:28;;;;;;;36.33;17.90;;;;;;;2.53;75.65;101284.80;125585;1099;104208;-85
2023/02/12 06:08:00;;;;;;;35.00;17.43;;;;;;;2.56;75.67;101295.41;125344;1099;104217;-85
2023/02/12 06:10:31;;;;;;;35.80;17.57;;;;;;;2.57;75.76;101292.02;125632;1099;104203;-85
2023/02/12 06:13:02;;;;;;;35.63;17.47;;;;;;;2.58;75.74;101292.13;125566;1099;104178;-87
2023/02/12 06:15:36;;;;;;;36.00;17.73;;;;;;;2.60;75.18;101300.03;125576;1099;104236;-88
2023/02/12 06:18:07;;;;;;;34.63;16.67;;;;;;;2.62;76.22;101309.75;125550;1098;101992;-83
2023/02/12 06:20:40;;;;;;;36.90;17.33;;;;;;;2.64;76.70;101305.59;125291;1099;104185;-86
2023/02/12 06:23:11;;;;;;;37.80;17.43;;;;;;;2.64;76.89;101318.55;125508;1099;101783;-86
2023/02/12 06:25:42;;;;;;;33.90;16.70;;;;;;;2.66;75.70;101329.03;125554;1099;104195;-87
2023/02/12 06:28:14;;;;;;;34.73;16.93;;;;;;;2.68;77.03;101333.57;125475;1099;104285;-87
2023/02/12 06:30:45;;;;;;;34.47;16.73;;;;;;;2.70;76.17;101342.36;125579;1099;104172;-84
2023/02/12 06:33:16;;;;;;;35.47;17.97;;;;;;;2.73;77.39;101338.20;125067;1099;102057;-84
2023/02/12 06:35:48;;;;;;;35.70;17.57;;;;;;;2.75;77.85;101347.02;125670;1098;104077;-86
2023/02/12 06:38:19;;;;;;;35.23;16.27;;;;;;;2.77;78.06;101350.62;125528;1099;101942;-85
2023/02/12 06:40:50;;;;;;;33.80;16.80;;;;;;;2.80;77.99;101340.52;125554;1099;104358;-86
2023/02/12 06:43:22;;;;;;;34.77;18.10;;;;;;;2.88;77.89;101348.13;125650;1099;104194;-86
2023/02/12 06:45:53;;;;;;;33.03;16.40;;;;;;;2.94;77.25;101345.10;125562;1099;102995;-85
2023/02/12 06:48:24;;;;;;;34.30;17.15;;;;;;;2.99;77.03;101348.06;125665;1099;104217;-86
2023/02/12 06:50:56;;;;;;;35.37;17.50;;;;;;;3.02;77.15;101358.67;125574;1098;104204;-87
2023/02/12 06:53:27;;;;;;;37.80;18.27;;;;;;;3.03;77.03;101351.02;125492;1099;101782;-87
2023/02/12 06:56:00;;;;;;;37.27;18.00;;;;;;;3.06;77.22;101365.93;125583;1099;101836;-85
2023/02/12 06:58:31;;;;;;;35.53;17.83;;;;;;;3.07;77.33;101367.75;125516;1099;102313;-82
2023/02/12 07:01:12;;;;;;;37.73;18.10;;;;;;;3.10;77.09;101367.06;125541;1099;104217;-86
2023/02/12 07:03:44;;;;;;;36.87;17.43;;;;;;;3.13;77.44;101372.50;125561;1099;104307;-84
2023/02/12 07:06:16;;;;;;;35.37;16.93;;;;;;;3.15;77.58;101377.03;125656;1098;104182;-85
2023/02/12 07:08:48;;;;;;;35.50;17.25;;;;;;;3.19;77.69;101380.77;125659;1099;104263;-85
2023/02/12 07:11:22;;;;;;;30.57;16.67;;;;;;;3.17;77.28;101380.64;125428;1099;104380;-88
2023/02/12 07:13:54;;;;;;;36.07;17.73;;;;;;;3.19;77.74;101389.44;125596;1098;101858;-85
2023/02/12 07:16:25;;;;;;;35.90;18.20;;;;;;;3.19;77.12;101389.44;125623;1099;104632;-89
2023/02/12 07:18:56;;;;;;;36.13;17.60;;;;;;;3.17;77.62;101385.83;125614;1099;101925;-88
2023/02/12 07:21:27;;;;;;;36.97;17.90;;;;;;;3.17;77.48;101396.20;125592;1099;104182;-85
2023/02/12 07:23:59;;;;;;;35.73;17.20;;;;;;;3.17;77.95;101403.98;125485;1099;104092;-84
2023/02/12 07:26:30;;;;;;;33.80;16.80;;;;;;;3.19;77.99;101398.92;125561;1099;102280;-86
2023/02/12 07:29:01;;;;;;;38.43;18.13;;;;;;;3.22;77.65;101405.25;125579;1099;102019;-87
2023/02/12 07:31:33;;;;;;;37.87;19.43;;;;;;;3.23;77.31;101407.07;125558;1099;104210;-87
2023/02/12 07:34:05;;;;;;;36.17;17.67;;;;;;;3.28;77.58;101409.14;125544;1099;102087;-83
2023/02/12 07:36:36;;;;;;;34.03;16.80;;;;;;;3.36;77.43;101414.13;125504;1099;101942;-86
2023/02/12 07:39:07;;;;;;;38.23;19.00;;;;;;;3.44;78.31;101411.25;125556;1098;104309;-85
2023/02/12 07:41:39;;;;;;;34.70;17.67;;;;;;;3.49;78.92;101410.84;125575;1099;102374;-83
2023/02/12 07:44:12;;;;;;;32.03;15.90;;;;;;;3.52;78.52;101405.89;125627;1099;104316;-85
2023/02/12 07:46:45;;;;;;;32.00;15.97;;;;;;;3.60;78.31;101406.49;125670;1098;101971;-82
2023/02/12 07:49:18;;;;;;;32.37;15.90;;;;;;;3.72;79.13;101410.02;125714;1099;102479;-86
2023/02/12 07:51:50;;;;;;;32.40;14.83;;;;;;;3.87;78.37;101430.19;125585;1099;104089;-85
2023/02/12 07:54:21;;;;;;;27.10;13.00;;;;;;;3.99;78.91;101423.34;125563;1099;101883;-85
2023/02/12 07:56:52;;;;;;;27.77;12.83;;;;;;;4.13;78.16;101419.20;125588;1099;102120;-85
2023/02/12 07:59:24;;;;;;;22.57;9.73;;;;;;;4.24;78.21;101415.72;125648;1098;104259;-86
2023/02/12 08:01:57;;;;;;;19.90;8.93;;;;;;;4.33;77.75;101418.09;125548;1099;102341;-81
2023/02/12 08:04:28;;;;;;;21.90;9.77;;;;;;;4.42;77.47;101425.69;125587;1099;104223;-85
2023/02/12 08:07:00;;;;;;;22.70;10.50;;;;;;;4.44;77.30;101421.50;125625;1099;102175;-84
2023/02/12 08:09:32;;;;;;;20.23;10.03;;;;;;;4.46;78.18;101431.23;125724;1099;104117;-85
2023/02/12 08:12:03;;;;;;;22.03;9.93;;;;;;;4.49;77.20;101433.16;125672;1098;102067;-86
2023/02/12 08:14:34;;;;;;;22.47;10.00;;;;;;;4.50;76.88;101429.75;125582;1099;101893;-81
2023/02/12 08:17:07;;;;;;;23.00;10.50;;;;;;;4.52;77.14;101435.99;125741;1099;104127;-84
2023/02/12 08:19:39;;;;;;;21.37;10.17;;;;;;;4.52;77.19;101458.46;125393;1099;104210;-85
2023/02/12 08:22:10;;;;;;;22.87;10.20;;;;;;;4.49;77.10;101452.25;125562;1099;104278;-87
2023/02/12 08:24:42;;;;;;;21.53;9.80;;;;;;;4.48;76.93;101453.03;125660;1099;104201;-82
2023/02/12 08:27:13;;;;;;;19.63;8.67;;;;;;;4.50;76.73;101460.95;125646;1099;102227;-83
2023/02/12 08:29:44;;;;;;;20.27;9.07;;;;;;;4.52;76.71;101461.98;125683;1098;104198;-85
2023/02/12 08:32:16;;;;;;;17.35;7.30;;;;;;;4.54;76.88;101473.39;125680;1099;104265;-83
2023/02/12 08:34:47;;;;;;;18.03;7.90;;;;;;;4.56;75.84;101481.31;125615;1099;103794;-83
2023/02/12 08:37:18;;;;;;;17.10;7.37;;;;;;;4.61;75.25;101472.16;125652;1099;104101;-85
2023/02/12 08:39:50;;;;;;;11.73;5.40;;;;;;;4.66;74.17;101469.12;125719;1099;104252;-85
2023/02/12 08:42:24;;;;;;;13.73;5.80;;;;;;;4.71;73.54;101477.27;125740;1098;104347;-85
2023/02/12 08:44:55;;;;;;;12.03;5.50;;;;;;;4.76;73.12;101490.61;125658;1099;102093;-84
2023/02/12 08:47:26;;;;;;;15.77;6.03;;;;;;;4.80;72.08;101495.23;125602;1099;104144;-86
2023/02/12 08:49:58;;;;;;;14.27;6.07;;;;;;;4.88;73.59;101494.13;125700;1099;104172;-85
2023/02/12 08:52:29;;;;;;;13.30;5.53;;;;;;;4.96;72.89;101494.70;125855;1099;104655;-86
2023/02/12 08:55:00;;;;;;;12.47;5.63;;;;;;;5.01;72.51;101499.43;125591;1098;104243;-82
2023/02/12 08:57:33;;;;;;;15.00;6.80;;;;;;;5.00;71.49;101509.72;125693;1099;102065;-86
2023/02/12 09:00:05;;;;;;;13.00;6.07;;;;;;;4.98;71.76;101514.81;125667;1099;104293;-86
2023/02/12 09:02:36;;;;;;;8.90;4.30;;;;;;;4.93;70.22;101528.28;125753;1098;104175;-83
2023/02/12 09:05:08;;;;;;;8.67;4.43;;;;;;;4.89;69.57;101529.73;125731;1099;101826;-85
2023/02/12 09:07:39;;;;;;;8.03;3.87;;;;;;;4.86;66.46;101546.03;125871;1098;104272;-84
2023/02/12 09:10:11;;;;;;;6.77;3.33;;;;;;;4.92;65.54;101540.36;125621;1099;102031;-81
2023/02/12 09:12:43;;;;;;;8.53;3.60;;;;;;;5.13;67.10;101545.37;125753;1099;104195;-81
2023/02/12 09:15:14;;;;;;;5.37;2.83;;;;;;;5.29;67.30;101543.10;125743;1098;104182;-82
2023/02/12 09:17:45;;;;;;;5.87;2.60;;;;;;;5.50;65.45;101542.85;125043;1098;104217;-86
2023/02/12 09:20:17;;;;;;;4.83;2.67;;;;;;;5.69;65.85;101539.91;125084;1099;102702;-84
2023/02/12 09:22:48;;;;;;;4.50;2.87;;;;;;;5.71;66.64;101544.41;125633;1099;104475;-83
2023/02/12 09:25:19;;;;;;;5.37;2.50;;;;;;;5.63;62.43;101578.52;125739;1099;101926;-82
2023/02/12 09:27:51;;;;;;;4.57;2.37;;;;;;;5.53;63.31;101550.89;125681;1099;104063;-84
2023/02/12 09:30:22;;;;;;;6.40;2.90;;;;;;;5.49;64.83;101554.09;125694;1098;104258;-85
2023/02/12 09:32:55;;;;;;;5.55;2.75;;;;;;;5.48;64.60;101566.17;125760;1099;102021;-84
2023/02/12 09:35:26;;;;;;;9.27;3.00;;;;;;;5.34;63.84;101569.47;125598;1099;104278;-84
2023/02/12 09:37:57;;;;;;;5.03;2.60;;;;;;;5.30;60.29;101572.63;125568;1099;101921;-82
2023/02/12 09:40:36;;;;;;;5.30;2.97;;;;;;;5.37;60.24;101583.60;125664;1099;104236;-80
2023/02/12 09:43:18;;;;;;;5.23;2.60;;;;;;;5.37;60.15;101585.31;125497;1099;110308;-82
2023/02/12 09:45:57;;;;;;;3.60;2.57;;;;;;;5.43;60.77;101572.75;125620;1098;104248;-85
2023/02/12 09:48:42;;;;;;;5.93;2.53;;;;;;;5.44;59.44;101566.77;125680;1098;102631;-84
2023/02/12 09:51:14;;;;;;;3.80;2.40;;;;;;;5.26;56.75;101571.50;125556;1098;102290;-84
2023/02/12 09:53:48;;;;;;;7.77;3.00;;;;;;;5.44;59.70;101573.64;125714;1099;104201;-83
2023/02/12 09:56:23;;;;;;;3.53;2.63;;;;;;;5.68;59.52;101571.94;125775;1099;104130;-83
2023/02/12 09:58:58;;;;;;;5.33;2.57;;;;;;;5.61;58.22;101581.02;125751;1099;104214;-85
2023/02/12 10:01:30;;;;;;;8.23;2.73;;;;;;;5.49;58.91;101593.13;125763;1099;104336;-85
2023/02/12 10:04:02;;;;;;;3.37;2.60;;;;;;;5.42;56.50;101596.06;125644;1099;104313;-85
2023/02/12 10:06:41;;;;;;;5.63;2.57;;;;;;;5.48;59.23;101599.13;125694;1099;104195;-84
2023/02/12 10:09:30;;;;;;;8.47;2.67;;;;;;;5.56;58.65;101597.98;125606;1099;104236;-84
2023/02/12 10:12:21;;;;;;;5.00;2.40;;;;;;;5.62;58.78;101589.72;125531;1099;104245;-82
2023/02/12 10:15:14;;;;;;;7.47;2.30;;;;;;;5.46;56.07;101582.50;125511;1099;102137;-84
2023/02/12 10:17:54;;;;;;;4.33;2.20;;;;;;;5.41;53.65;101600.38;124998;1099;101919;-84
2023/02/12 10:20:40;;;;;;;4.10;2.10;;;;;;;5.49;54.19;101600.94;125603;1099;102035;-84
2023/02/12 10:23:31;;;;;;;4.30;2.10;;;;;;;5.56;53.48;101608.39;125699;1099;104182;-83
2023/02/12 10:26:11;;;;;;;3.87;1.87;;;;;;;5.60;51.99;101613.05;125731;1098;101893;-83
2023/02/12 10:28:43;;;;;;;6.47;1.90;;;;;;;5.68;52.03;101617.11;125785;1098;102130;-80
2023/02/12 10:31:19;;;;;;;4.90;1.83;;;;;;;5.76;53.13;101615.06;125614;1099;104189;-84
2023/02/12 10:33:53;;;;;;;2.57;1.50;;;;;;;5.78;50.37;101616.11;125629;1099;102041;-82
2023/02/12 10:36:32;;;;;;;4.23;1.60;;;;;;;5.77;51.05;101619.49;125670;1099;104681;-83
2023/02/12 10:39:14;;;;;;;2.40;1.70;;;;;;;5.77;49.74;101624.70;125630;1099;104258;-83
2023/02/12 10:41:52;;;;;;;2.60;1.67;;;;;;;5.79;50.31;101617.89;125632;1099;104462;-83
2023/02/12 10:44:23;;;;;;;5.85;2.10;;;;;;;5.76;49.98;101629.02;125388;1099;107257;-84
2023/02/12 10:46:55;;;;;;;2.33;1.60;;;;;;;5.64;46.81;101656.76;125492;1099;104179;-84
2023/02/12 10:49:26;;;;;;;6.67;1.87;;;;;;;5.53;46.10;101668.98;125600;1099;104290;-83
2023/02/12 10:52:08;;;;;;;1.90;1.40;;;;;;;5.45;44.42;101650.95;125664;1099;101800;-84
2023/02/12 10:54:44;;;;;;;2.03;1.47;;;;;;;5.46;45.69;101648.47;124994;1099;118510;-80
2023/02/12 10:57:24;;;;;;;7.27;1.70;;;;;;;5.51;46.83;101670.54;125554;1099;104115;-85
2023/02/12 10:59:57;;;;;;;3.07;1.67;;;;;;;5.58;48.20;101656.30;125590;1098;104249;-81
2023/02/12 11:02:30;;;;;;;2.97;1.80;;;;;;;5.60;47.64;101665.13;125695;1099;102046;-82
2023/02/12 11:05:20;;;;;;;3.33;2.00;;;;;;;5.55;47.55;101651.77;125671;1098;104554;-83
2023/02/12 11:07:53;;;;;;;5.63;1.77;;;;;;;5.55;47.12;101679.51;125653;1099;104169;-82
2023/02/12 11:10:31;;;;;;;2.77;1.60;;;;;;;5.58;48.48;101654.59;125579;1099;104323;-84
2023/02/12 11:13:03;;;;;;;4.03;1.80;;;;;;;5.64;48.84;101663.64;125714;1099;104744;-83
2023/02/12 11:15:46;;;;;;;5.37;2.20;;;;;;;5.70;46.49;101669.30;125637;1099;104248;-82
2023/02/12 11:18:24;;;;;;;3.03;2.10;;;;;;;5.70;47.38;101672.84;125743;1096;102374;-84
2023/02/12 11:20:58;;;;;;;4.30;2.03;;;;;;;5.67;48.59;101666.47;125568;1098;102031;-84
2023/02/12 11:23:31;;;;;;;3.70;2.05;;;;;;;5.70;47.60;101674.52;125677;1099;102793;-82
2023/02/12 11:26:04;;;;;;;4.43;2.10;;;;;;;5.69;48.16;101683.14;125604;1099;101846;-82
2023/02/12 11:28:38;;;;;;;5.23;2.23;;;;;;;5.70;47.51;101675.44;125608;1098;104213;-85
2023/02/12 11:31:23;;;;;;;4.00;2.03;;;;;;;5.70;49.21;101675.44;125704;1099;101791;-84
2023/02/12 11:34:15;;;;;;;4.73;2.20;;;;;;;5.72;47.63;101686.87;125715;1099;101876;-84
2023/02/12 11:36:48;;;;;;;3.10;1.87;;;;;;;5.68;47.12;101684.81;125715;1098;104281;-79
2023/02/12 11:39:24;;;;;;;4.47;2.00;;;;;;;5.63;45.97;101678.38;125604;1099;104278;-83